sensor_id;sensor_type;location;lat;lon;timestamp;temperature;humidity
69208;SHT31;56321;47.662;8.878;2023-03-20T00:01:10;10.47;68.02
69208;SHT31;56321;47.662;8.878;2023-03-20T00:03:36;10.52;67.93
69208;SHT31;56321;47.662;8.878;2023-03-20T00:06:02;10.59;67.96
69208;SHT31;56321;47.662;8.878;2023-03-20T00:08:27;10.60;67.90
69208;SHT31;56321;47.662;8.878;2023-03-20T00:10:53;10.66;67.77
69208;SHT31;56321;47.662;8.878;2023-03-20T00:13:24;10.64;67.91
69208;SHT31;56321;47.662;8.878;2023-03-20T00:15:52;10.63;67.77
69208;SHT31;56321;47.662;8.878;2023-03-20T00:18:20;10.60;67.67
69208;SHT31;56321;47.662;8.878;2023-03-20T00:20:48;10.63;67.74
69208;SHT31;56321;47.662;8.878;2023-03-20T00:23:13;10.61;67.66
69208;SHT31;56321;47.662;8.878;2023-03-20T00:25:40;10.56;67.67
69208;SHT31;56321;47.662;8.878;2023-03-20T00:28:28;10.49;68.31
69208;SHT31;56321;47.662;8.878;2023-03-20T00:30:54;10.47;67.77
69208;SHT31;56321;47.662;8.878;2023-03-20T00:33:19;10.40;67.88
69208;SHT31;56321;47.662;8.878;2023-03-20T00:35:45;10.36;67.90
69208;SHT31;56321;47.662;8.878;2023-03-20T00:38:10;10.32;67.84
69208;SHT31;56321;47.662;8.878;2023-03-20T00:40:35;10.25;67.84
69208;SHT31;56321;47.662;8.878;2023-03-20T00:43:02;10.16;67.90
69208;SHT31;56321;47.662;8.878;2023-03-20T00:45:30;10.08;67.83
69208;SHT31;56321;47.662;8.878;2023-03-20T00:47:57;9.99;68.01
69208;SHT31;56321;47.662;8.878;2023-03-20T00:50:25;9.92;68.15
69208;SHT31;56321;47.662;8.878;2023-03-20T00:52:51;9.87;68.26
69208;SHT31;56321;47.662;8.878;2023-03-20T00:55:20;9.81;68.35
69208;SHT31;56321;47.662;8.878;2023-03-20T00:57:52;9.81;68.59
69208;SHT31;56321;47.662;8.878;2023-03-20T01:00:47;9.79;69.52
69208;SHT31;56321;47.662;8.878;2023-03-20T01:03:18;9.82;68.88
69208;SHT31;56321;47.662;8.878;2023-03-20T01:05:45;9.87;68.89
69208;SHT31;56321;47.662;8.878;2023-03-20T01:08:20;9.91;69.05
69208;SHT31;56321;47.662;8.878;2023-03-20T01:10:47;9.95;68.89
69208;SHT31;56321;47.662;8.878;2023-03-20T01:13:21;9.99;68.94
69208;SHT31;56321;47.662;8.878;2023-03-20T01:15:47;10.05;69.04
69208;SHT31;56321;47.662;8.878;2023-03-20T01:18:14;10.08;69.13
69208;SHT31;56321;47.662;8.878;2023-03-20T01:20:40;10.10;69.04
69208;SHT31;56321;47.662;8.878;2023-03-20T01:23:06;10.15;69.04
69208;SHT31;56321;47.662;8.878;2023-03-20T01:25:31;10.15;69.12
69208;SHT31;56321;47.662;8.878;2023-03-20T01:27:57;10.16;69.12
69208;SHT31;56321;47.662;8.878;2023-03-20T01:30:28;10.19;69.06
69208;SHT31;56321;47.662;8.878;2023-03-20T01:32:55;10.25;69.01
69208;SHT31;56321;47.662;8.878;2023-03-20T01:35:22;10.26;68.98
69208;SHT31;56321;47.662;8.878;2023-03-20T01:37:49;10.23;68.99
69208;SHT31;56321;47.662;8.878;2023-03-20T01:41:02;10.23;69.05
69208;SHT31;56321;47.662;8.878;2023-03-20T01:43:15;10.25;69.23
69208;SHT31;56321;47.662;8.878;2023-03-20T01:51:21;10.20;69.21
69208;SHT31;56321;47.662;8.878;2023-03-20T01:53:50;10.23;69.26
69208;SHT31;56321;47.662;8.878;2023-03-20T01:56:18;10.25;69.28
69208;SHT31;56321;47.662;8.878;2023-03-20T01:58:48;10.29;69.38
69208;SHT31;56321;47.662;8.878;2023-03-20T02:01:16;10.29;69.30
69208;SHT31;56321;47.662;8.878;2023-03-20T02:03:45;10.28;69.32
69208;SHT31;56321;47.662;8.878;2023-03-20T02:06:12;10.29;69.27
69208;SHT31;56321;47.662;8.878;2023-03-20T02:08:46;10.28;69.38
69208;SHT31;56321;47.662;8.878;2023-03-20T02:11:12;10.29;69.25
69208;SHT31;56321;47.662;8.878;2023-03-20T02:13:39;10.28;69.34
69208;SHT31;56321;47.662;8.878;2023-03-20T02:16:13;10.29;69.59
69208;SHT31;56321;47.662;8.878;2023-03-20T02:18:41;10.32;69.43
69208;SHT31;56321;47.662;8.878;2023-03-20T02:26:53;10.37;69.47
69208;SHT31;56321;47.662;8.878;2023-03-20T02:45:32;10.43;69.56
69208;SHT31;56321;47.662;8.878;2023-03-20T02:50:47;10.46;69.60
69208;SHT31;56321;47.662;8.878;2023-03-20T02:55:48;10.52;69.57
69208;SHT31;56321;47.662;8.878;2023-03-20T02:58:42;10.50;70.13
69208;SHT31;56321;47.662;8.878;2023-03-20T03:01:16;10.52;69.67
69208;SHT31;56321;47.662;8.878;2023-03-20T03:03:55;10.49;69.82
69208;SHT31;56321;47.662;8.878;2023-03-20T03:06:28;10.49;69.73
69208;SHT31;56321;47.662;8.878;2023-03-20T03:09:13;10.47;70.14
69208;SHT31;56321;47.662;8.878;2023-03-20T03:11:42;10.50;69.70
69208;SHT31;56321;47.662;8.878;2023-03-20T03:14:18;10.53;69.83
69208;SHT31;56321;47.662;8.878;2023-03-20T03:16:47;10.54;69.79
69208;SHT31;56321;47.662;8.878;2023-03-20T03:19:20;10.56;69.85
69208;SHT31;56321;47.662;8.878;2023-03-20T03:21:47;10.53;69.75
69208;SHT31;56321;47.662;8.878;2023-03-20T03:24:33;10.54;70.15
69208;SHT31;56321;47.662;8.878;2023-03-20T03:27:02;10.54;69.90
69208;SHT31;56321;47.662;8.878;2023-03-20T03:29:33;10.56;69.95
69208;SHT31;56321;47.662;8.878;2023-03-20T03:32:02;10.57;69.88
69208;SHT31;56321;47.662;8.878;2023-03-20T03:34:30;10.57;69.87
69208;SHT31;56321;47.662;8.878;2023-03-20T03:37:03;10.59;69.87
69208;SHT31;56321;47.662;8.878;2023-03-20T03:39:40;10.59;70.02
69208;SHT31;56321;47.662;8.878;2023-03-20T03:47:44;10.61;69.82
69208;SHT31;56321;47.662;8.878;2023-03-20T03:50:17;10.61;69.84
69208;SHT31;56321;47.662;8.878;2023-03-20T03:52:45;10.63;69.81
69208;SHT31;56321;47.662;8.878;2023-03-20T03:55:21;10.60;69.94
69208;SHT31;56321;47.662;8.878;2023-03-20T03:57:52;10.61;69.87
69208;SHT31;56321;47.662;8.878;2023-03-20T04:00:22;10.64;69.88
69208;SHT31;56321;47.662;8.878;2023-03-20T04:02:50;10.63;69.86
69208;SHT31;56321;47.662;8.878;2023-03-20T04:05:18;10.64;69.83
69208;SHT31;56321;47.662;8.878;2023-03-20T04:07:46;10.63;69.80
69208;SHT31;56321;47.662;8.878;2023-03-20T04:10:12;10.64;69.75
69208;SHT31;56321;47.662;8.878;2023-03-20T04:12:41;10.64;69.74
69208;SHT31;56321;47.662;8.878;2023-03-20T04:15:07;10.63;69.77
69208;SHT31;56321;47.662;8.878;2023-03-20T04:17:34;10.63;69.74
69208;SHT31;56321;47.662;8.878;2023-03-20T04:19:59;10.63;69.65
69208;SHT31;56321;47.662;8.878;2023-03-20T04:22:25;10.61;69.65
69208;SHT31;56321;47.662;8.878;2023-03-20T04:24:50;10.60;69.69
69208;SHT31;56321;47.662;8.878;2023-03-20T04:27:17;10.60;69.67
69208;SHT31;56321;47.662;8.878;2023-03-20T04:29:42;10.59;69.71
69208;SHT31;56321;47.662;8.878;2023-03-20T04:32:08;10.56;69.74
69208;SHT31;56321;47.662;8.878;2023-03-20T04:34:34;10.54;69.81
69208;SHT31;56321;47.662;8.878;2023-03-20T04:36:59;10.54;69.85
69208;SHT31;56321;47.662;8.878;2023-03-20T04:39:27;10.54;69.84
69208;SHT31;56321;47.662;8.878;2023-03-20T04:41:53;10.53;69.88
69208;SHT31;56321;47.662;8.878;2023-03-20T04:44:18;10.53;69.91
69208;SHT31;56321;47.662;8.878;2023-03-20T04:46:44;10.50;70.00
69208;SHT31;56321;47.662;8.878;2023-03-20T04:49:09;10.49;70.01
69208;SHT31;56321;47.662;8.878;2023-03-20T04:51:34;10.50;69.99
69208;SHT31;56321;47.662;8.878;2023-03-20T04:54:00;10.50;70.10
69208;SHT31;56321;47.662;8.878;2023-03-20T04:56:25;10.53;70.06
69208;SHT31;56321;47.662;8.878;2023-03-20T04:58:50;10.50;70.05
69208;SHT31;56321;47.662;8.878;2023-03-20T05:01:16;10.49;70.11
69208;SHT31;56321;47.662;8.878;2023-03-20T05:03:41;10.49;70.00
69208;SHT31;56321;47.662;8.878;2023-03-20T05:06:07;10.46;70.01
69208;SHT31;56321;47.662;8.878;2023-03-20T05:08:32;10.43;70.05
69208;SHT31;56321;47.662;8.878;2023-03-20T05:10:58;10.42;70.09
69208;SHT31;56321;47.662;8.878;2023-03-20T05:13:23;10.40;70.03
69208;SHT31;56321;47.662;8.878;2023-03-20T05:15:48;10.36;70.16
69208;SHT31;56321;47.662;8.878;2023-03-20T05:18:14;10.33;70.29
69208;SHT31;56321;47.662;8.878;2023-03-20T05:20:39;10.32;70.38
69208;SHT31;56321;47.662;8.878;2023-03-20T05:23:04;10.26;70.49
69208;SHT31;56321;47.662;8.878;2023-03-20T05:25:30;10.26;70.53
69208;SHT31;56321;47.662;8.878;2023-03-20T05:27:55;10.23;70.47
69208;SHT31;56321;47.662;8.878;2023-03-20T05:30:21;10.25;70.42
69208;SHT31;56321;47.662;8.878;2023-03-20T05:32:50;10.19;70.43
69208;SHT31;56321;47.662;8.878;2023-03-20T05:35:16;10.19;70.37
69208;SHT31;56321;47.662;8.878;2023-03-20T05:37:42;10.13;70.25
69208;SHT31;56321;47.662;8.878;2023-03-20T05:40:11;10.06;70.35
69208;SHT31;56321;47.662;8.878;2023-03-20T05:42:36;9.99;70.50
69208;SHT31;56321;47.662;8.878;2023-03-20T05:45:02;9.95;70.55
69208;SHT31;56321;47.662;8.878;2023-03-20T05:47:27;9.91;70.63
69208;SHT31;56321;47.662;8.878;2023-03-20T05:49:52;9.87;70.83
69208;SHT31;56321;47.662;8.878;2023-03-20T05:52:18;9.85;70.89
69208;SHT31;56321;47.662;8.878;2023-03-20T05:54:43;9.89;70.92
69208;SHT31;56321;47.662;8.878;2023-03-20T05:57:08;9.85;71.00
69208;SHT31;56321;47.662;8.878;2023-03-20T05:59:34;9.84;71.10
69208;SHT31;56321;47.662;8.878;2023-03-20T06:01:59;9.87;71.17
69208;SHT31;56321;47.662;8.878;2023-03-20T06:04:24;9.88;71.32
69208;SHT31;56321;47.662;8.878;2023-03-20T06:06:50;9.89;71.32
69208;SHT31;56321;47.662;8.878;2023-03-20T06:09:15;9.95;71.40
69208;SHT31;56321;47.662;8.878;2023-03-20T06:11:40;10.01;71.34
69208;SHT31;56321;47.662;8.878;2023-03-20T06:14:06;10.03;71.05
69208;SHT31;56321;47.662;8.878;2023-03-20T06:16:31;10.06;71.00
69208;SHT31;56321;47.662;8.878;2023-03-20T06:18:56;10.03;70.95
69208;SHT31;56321;47.662;8.878;2023-03-20T06:21:22;10.06;70.94
69208;SHT31;56321;47.662;8.878;2023-03-20T06:23:47;10.06;71.02
69208;SHT31;56321;47.662;8.878;2023-03-20T06:26:13;10.09;71.09
69208;SHT31;56321;47.662;8.878;2023-03-20T06:28:38;10.12;71.01
69208;SHT31;56321;47.662;8.878;2023-03-20T06:31:03;10.16;71.10
69208;SHT31;56321;47.662;8.878;2023-03-20T06:33:29;10.22;70.95
69208;SHT31;56321;47.662;8.878;2023-03-20T06:35:54;10.26;70.93
69208;SHT31;56321;47.662;8.878;2023-03-20T06:38:20;10.30;70.57
69208;SHT31;56321;47.662;8.878;2023-03-20T06:40:45;10.30;70.58
69208;SHT31;56321;47.662;8.878;2023-03-20T06:43:10;10.33;70.56
69208;SHT31;56321;47.662;8.878;2023-03-20T06:45:37;10.39;70.50
69208;SHT31;56321;47.662;8.878;2023-03-20T06:48:05;10.39;70.51
69208;SHT31;56321;47.662;8.878;2023-03-20T06:50:31;10.49;70.52
69208;SHT31;56321;47.662;8.878;2023-03-20T06:52:56;10.47;70.31
69208;SHT31;56321;47.662;8.878;2023-03-20T06:55:22;10.50;70.42
69208;SHT31;56321;47.662;8.878;2023-03-20T06:57:47;10.56;70.36
69208;SHT31;56321;47.662;8.878;2023-03-20T07:00:14;10.59;70.17
69208;SHT31;56321;47.662;8.878;2023-03-20T07:02:39;10.61;70.05
69208;SHT31;56321;47.662;8.878;2023-03-20T07:05:05;10.74;70.14
69208;SHT31;56321;47.662;8.878;2023-03-20T07:07:31;10.85;70.09
69208;SHT31;56321;47.662;8.878;2023-03-20T07:09:56;11.00;69.65
69208;SHT31;56321;47.662;8.878;2023-03-20T07:12:22;11.11;69.48
69208;SHT31;56321;47.662;8.878;2023-03-20T07:14:52;11.21;69.10
69208;SHT31;56321;47.662;8.878;2023-03-20T07:17:18;11.31;68.86
69208;SHT31;56321;47.662;8.878;2023-03-20T07:19:43;11.38;68.75
69208;SHT31;56321;47.662;8.878;2023-03-20T07:22:18;11.39;68.49
69208;SHT31;56321;47.662;8.878;2023-03-20T07:24:44;11.42;68.41
69208;SHT31;56321;47.662;8.878;2023-03-20T07:27:09;11.44;68.33
69208;SHT31;56321;47.662;8.878;2023-03-20T07:29:35;11.53;68.29
69208;SHT31;56321;47.662;8.878;2023-03-20T07:32:01;11.60;68.24
69208;SHT31;56321;47.662;8.878;2023-03-20T07:34:28;11.67;67.92
69208;SHT31;56321;47.662;8.878;2023-03-20T07:36:53;11.76;67.71
69208;SHT31;56321;47.662;8.878;2023-03-20T07:39:20;11.88;67.58
69208;SHT31;56321;47.662;8.878;2023-03-20T07:41:45;11.97;67.28
69208;SHT31;56321;47.662;8.878;2023-03-20T07:44:10;12.07;66.90
69208;SHT31;56321;47.662;8.878;2023-03-20T07:46:38;12.13;66.69
69208;SHT31;56321;47.662;8.878;2023-03-20T07:49:05;12.21;66.36
69208;SHT31;56321;47.662;8.878;2023-03-20T07:51:30;12.32;66.46
69208;SHT31;56321;47.662;8.878;2023-03-20T07:53:55;12.48;66.42
69208;SHT31;56321;47.662;8.878;2023-03-20T07:56:21;12.60;65.91
69208;SHT31;56321;47.662;8.878;2023-03-20T07:58:46;12.80;65.75
69208;SHT31;56321;47.662;8.878;2023-03-20T08:01:11;12.94;65.47
69208;SHT31;56321;47.662;8.878;2023-03-20T08:03:37;13.10;64.32
69208;SHT31;56321;47.662;8.878;2023-03-20T08:06:03;13.17;64.28
69208;SHT31;56321;47.662;8.878;2023-03-20T08:08:31;13.31;64.31
69208;SHT31;56321;47.662;8.878;2023-03-20T08:10:57;13.45;63.68
69208;SHT31;56321;47.662;8.878;2023-03-20T08:13:22;13.55;63.36
69208;SHT31;56321;47.662;8.878;2023-03-20T08:15:47;13.66;63.14
69208;SHT31;56321;47.662;8.878;2023-03-20T08:18:13;13.78;63.25
69208;SHT31;56321;47.662;8.878;2023-03-20T08:20:38;13.93;62.68
69208;SHT31;56321;47.662;8.878;2023-03-20T08:23:03;14.10;62.08
69208;SHT31;56321;47.662;8.878;2023-03-20T08:25:29;14.36;62.10
69208;SHT31;56321;47.662;8.878;2023-03-20T08:27:58;14.54;61.30
69208;SHT31;56321;47.662;8.878;2023-03-20T08:30:25;14.63;60.67
69208;SHT31;56321;47.662;8.878;2023-03-20T08:32:51;14.76;60.49
69208;SHT31;56321;47.662;8.878;2023-03-20T08:35:16;15.02;59.93
69208;SHT31;56321;47.662;8.878;2023-03-20T08:37:41;15.29;59.44
69208;SHT31;56321;47.662;8.878;2023-03-20T08:40:07;15.65;58.61
69208;SHT31;56321;47.662;8.878;2023-03-20T08:42:33;15.99;57.80
69208;SHT31;56321;47.662;8.878;2023-03-20T08:44:58;16.43;56.57
69208;SHT31;56321;47.662;8.878;2023-03-20T08:47:23;16.87;56.21
69208;SHT31;56321;47.662;8.878;2023-03-20T08:49:50;17.46;55.31
69208;SHT31;56321;47.662;8.878;2023-03-20T08:52:15;18.05;53.61
69208;SHT31;56321;47.662;8.878;2023-03-20T08:54:40;18.34;52.78
69208;SHT31;56321;47.662;8.878;2023-03-20T08:57:06;18.55;51.78
69208;SHT31;56321;47.662;8.878;2023-03-20T08:59:31;18.55;50.66
69208;SHT31;56321;47.662;8.878;2023-03-20T09:01:57;18.75;49.83
69208;SHT31;56321;47.662;8.878;2023-03-20T09:04:22;18.93;49.91
69208;SHT31;56321;47.662;8.878;2023-03-20T09:06:48;19.04;48.97
69208;SHT31;56321;47.662;8.878;2023-03-20T09:09:14;18.94;48.21
69208;SHT31;56321;47.662;8.878;2023-03-20T09:11:40;18.57;48.93
69208;SHT31;56321;47.662;8.878;2023-03-20T09:14:05;18.19;48.23
69208;SHT31;56321;47.662;8.878;2023-03-20T09:16:31;17.62;48.67
69208;SHT31;56321;47.662;8.878;2023-03-20T09:18:57;17.18;49.47
69208;SHT31;56321;47.662;8.878;2023-03-20T09:21:23;16.81;50.09
69208;SHT31;56321;47.662;8.878;2023-03-20T09:23:48;16.46;50.50
69208;SHT31;56321;47.662;8.878;2023-03-20T09:26:13;16.15;50.71
69208;SHT31;56321;47.662;8.878;2023-03-20T09:28:39;15.84;50.97
69208;SHT31;56321;47.662;8.878;2023-03-20T09:31:04;15.61;51.46
69208;SHT31;56321;47.662;8.878;2023-03-20T09:33:30;15.39;52.17
69208;SHT31;56321;47.662;8.878;2023-03-20T09:35:55;15.20;52.81
69208;SHT31;56321;47.662;8.878;2023-03-20T09:38:21;15.07;53.38
69208;SHT31;56321;47.662;8.878;2023-03-20T09:40:55;14.92;52.89
69208;SHT31;56321;47.662;8.878;2023-03-20T09:49:12;14.55;54.86
69208;SHT31;56321;47.662;8.878;2023-03-20T09:56:57;14.72;54.62
69208;SHT31;56321;47.662;8.878;2023-03-20T09:59:24;14.86;54.55
69208;SHT31;56321;47.662;8.878;2023-03-20T10:01:58;15.00;54.00
69208;SHT31;56321;47.662;8.878;2023-03-20T10:04:27;15.07;53.20
69208;SHT31;56321;47.662;8.878;2023-03-20T10:06:53;15.12;53.38
69208;SHT31;56321;47.662;8.878;2023-03-20T10:09:25;15.12;52.77
69208;SHT31;56321;47.662;8.878;2023-03-20T10:17:19;14.78;53.30
69208;SHT31;56321;47.662;8.878;2023-03-20T10:22:48;14.63;53.37
69208;SHT31;56321;47.662;8.878;2023-03-20T10:25:30;14.58;53.77
69208;SHT31;56321;47.662;8.878;2023-03-20T10:28:01;14.60;53.21
69208;SHT31;56321;47.662;8.878;2023-03-20T10:35:46;14.58;52.96
69208;SHT31;56321;47.662;8.878;2023-03-20T10:40:55;14.65;53.44
69208;SHT31;56321;47.662;8.878;2023-03-20T10:43:34;14.75;52.47
69208;SHT31;56321;47.662;8.878;2023-03-20T10:46:19;14.88;52.93
69208;SHT31;56321;47.662;8.878;2023-03-20T10:49:05;15.04;52.50
69208;SHT31;56321;47.662;8.878;2023-03-20T10:52:02;15.24;52.24
69208;SHT31;56321;47.662;8.878;2023-03-20T10:56:54;15.50;52.11
69208;SHT31;56321;47.662;8.878;2023-03-20T10:59:27;15.55;51.51
69208;SHT31;56321;47.662;8.878;2023-03-20T11:01:53;15.60;51.62
69208;SHT31;56321;47.662;8.878;2023-03-20T11:04:19;15.60;51.35
69208;SHT31;56321;47.662;8.878;2023-03-20T11:09:32;15.57;51.39
69208;SHT31;56321;47.662;8.878;2023-03-20T11:12:00;15.50;51.58
69208;SHT31;56321;47.662;8.878;2023-03-20T11:14:32;15.40;52.12
69208;SHT31;56321;47.662;8.878;2023-03-20T11:17:00;15.39;52.10
69208;SHT31;56321;47.662;8.878;2023-03-20T11:19:32;15.34;53.05
69208;SHT31;56321;47.662;8.878;2023-03-20T11:22:00;15.37;52.48
69208;SHT31;56321;47.662;8.878;2023-03-20T11:24:35;15.40;52.44
69208;SHT31;56321;47.662;8.878;2023-03-20T11:27:10;15.53;52.38
69208;SHT31;56321;47.662;8.878;2023-03-20T11:29:37;15.64;51.82
69208;SHT31;56321;47.662;8.878;2023-03-20T11:32:26;15.68;51.84
69208;SHT31;56321;47.662;8.878;2023-03-20T11:34:53;15.88;51.16
69208;SHT31;56321;47.662;8.878;2023-03-20T11:37:33;16.16;50.78
69208;SHT31;56321;47.662;8.878;2023-03-20T11:42:31;17.50;49.34
69208;SHT31;56321;47.662;8.878;2023-03-20T11:45:05;17.94;48.17
69208;SHT31;56321;47.662;8.878;2023-03-20T11:47:33;18.32;47.45
69208;SHT31;56321;47.662;8.878;2023-03-20T11:50:01;18.59;46.65
69208;SHT31;56321;47.662;8.878;2023-03-20T11:52:33;18.60;45.19
69208;SHT31;56321;47.662;8.878;2023-03-20T11:55:02;18.39;44.76
69208;SHT31;56321;47.662;8.878;2023-03-20T11:59:56;17.66;44.92
69208;SHT31;56321;47.662;8.878;2023-03-20T12:02:23;17.31;45.16
69208;SHT31;56321;47.662;8.878;2023-03-20T12:04:49;17.02;46.31
69208;SHT31;56321;47.662;8.878;2023-03-20T12:07:31;16.87;46.72
69208;SHT31;56321;47.662;8.878;2023-03-20T12:10:11;16.74;46.18
69208;SHT31;56321;47.662;8.878;2023-03-20T12:12:48;16.61;46.14
69208;SHT31;56321;47.662;8.878;2023-03-20T12:15:21;16.50;46.57
69208;SHT31;56321;47.662;8.878;2023-03-20T12:23:09;16.19;46.70
69208;SHT31;56321;47.662;8.878;2023-03-20T12:25:42;16.23;47.76
69208;SHT31;56321;47.662;8.878;2023-03-20T12:36:50;16.89;46.28
69208;SHT31;56321;47.662;8.878;2023-03-20T12:39:19;17.14;45.86
69208;SHT31;56321;47.662;8.878;2023-03-20T12:49:40;17.80;43.95
69208;SHT31;56321;47.662;8.878;2023-03-20T13:00:37;17.31;45.00
69208;SHT31;56321;47.662;8.878;2023-03-20T13:20:00;17.07;45.15
69208;SHT31;56321;47.662;8.878;2023-03-20T13:31:03;16.92;45.13
69208;SHT31;56321;47.662;8.878;2023-03-20T13:39:19;16.88;44.80
69208;SHT31;56321;47.662;8.878;2023-03-20T13:41:48;16.84;44.96
69208;SHT31;56321;47.662;8.878;2023-03-20T13:44:17;16.80;45.58
69208;SHT31;56321;47.662;8.878;2023-03-20T13:46:50;16.70;45.15
69208;SHT31;56321;47.662;8.878;2023-03-20T13:49:38;16.66;44.18
69208;SHT31;56321;47.662;8.878;2023-03-20T13:52:16;16.63;45.37
69208;SHT31;56321;47.662;8.878;2023-03-20T13:57:58;16.60;44.94
69208;SHT31;56321;47.662;8.878;2023-03-20T14:00:50;16.66;45.10
69208;SHT31;56321;47.662;8.878;2023-03-20T14:03:45;16.70;44.69
69208;SHT31;56321;47.662;8.878;2023-03-20T14:08:51;16.60;44.52
69208;SHT31;56321;47.662;8.878;2023-03-20T14:13:51;16.46;44.26
69208;SHT31;56321;47.662;8.878;2023-03-20T14:16:18;16.42;44.75
69208;SHT31;56321;47.662;8.878;2023-03-20T14:18:47;16.36;44.74
69208;SHT31;56321;47.662;8.878;2023-03-20T14:21:17;16.32;45.58
69208;SHT31;56321;47.662;8.878;2023-03-20T14:23:49;16.33;45.05
69208;SHT31;56321;47.662;8.878;2023-03-20T14:26:53;16.32;45.27
69208;SHT31;56321;47.662;8.878;2023-03-20T14:29:34;16.30;45.04
69208;SHT31;56321;47.662;8.878;2023-03-20T14:37:37;16.06;44.98
69208;SHT31;56321;47.662;8.878;2023-03-20T14:40:11;16.01;45.40
69208;SHT31;56321;47.662;8.878;2023-03-20T14:42:44;15.99;45.63
69208;SHT31;56321;47.662;8.878;2023-03-20T14:53:20;16.18;45.43
69208;SHT31;56321;47.662;8.878;2023-03-20T15:01:04;16.30;45.47
69208;SHT31;56321;47.662;8.878;2023-03-20T15:03:31;16.27;45.31
69208;SHT31;56321;47.662;8.878;2023-03-20T15:05:59;16.19;45.09
69208;SHT31;56321;47.662;8.878;2023-03-20T15:08:31;16.09;45.60
69208;SHT31;56321;47.662;8.878;2023-03-20T15:11:01;16.02;45.74
69208;SHT31;56321;47.662;8.878;2023-03-20T15:13:29;15.99;45.91
69208;SHT31;56321;47.662;8.878;2023-03-20T15:15:57;15.92;46.15
69208;SHT31;56321;47.662;8.878;2023-03-20T15:18:26;15.91;45.57
69208;SHT31;56321;47.662;8.878;2023-03-20T15:20:51;15.88;45.47
69208;SHT31;56321;47.662;8.878;2023-03-20T15:23:17;15.87;45.54
69208;SHT31;56321;47.662;8.878;2023-03-20T15:25:46;15.89;45.66
69208;SHT31;56321;47.662;8.878;2023-03-20T15:28:18;15.94;45.91
69208;SHT31;56321;47.662;8.878;2023-03-20T15:30:45;15.95;45.59
69208;SHT31;56321;47.662;8.878;2023-03-20T15:33:16;15.95;45.46
69208;SHT31;56321;47.662;8.878;2023-03-20T15:35:42;15.89;45.95
69208;SHT31;56321;47.662;8.878;2023-03-20T15:38:13;15.84;45.46
69208;SHT31;56321;47.662;8.878;2023-03-20T15:40:39;15.84;46.26
69208;SHT31;56321;47.662;8.878;2023-03-20T15:45:38;15.74;45.86
69208;SHT31;56321;47.662;8.878;2023-03-20T15:48:12;15.68;45.94
69208;SHT31;56321;47.662;8.878;2023-03-20T15:50:39;15.55;46.50
69208;SHT31;56321;47.662;8.878;2023-03-20T15:53:07;15.46;46.44
69208;SHT31;56321;47.662;8.878;2023-03-20T15:55:36;15.37;46.62
69208;SHT31;56321;47.662;8.878;2023-03-20T15:58:03;15.30;46.97
69208;SHT31;56321;47.662;8.878;2023-03-20T16:00:31;15.22;47.31
69208;SHT31;56321;47.662;8.878;2023-03-20T16:02:58;15.14;47.55
69208;SHT31;56321;47.662;8.878;2023-03-20T16:05:27;15.04;47.27
69208;SHT31;56321;47.662;8.878;2023-03-20T16:07:53;14.96;47.98
69208;SHT31;56321;47.662;8.878;2023-03-20T16:12:49;14.91;48.09
69208;SHT31;56321;47.662;8.878;2023-03-20T16:15:19;14.84;47.97
69208;SHT31;56321;47.662;8.878;2023-03-20T16:17:47;14.81;47.85
69208;SHT31;56321;47.662;8.878;2023-03-20T16:20:14;14.72;47.98
69208;SHT31;56321;47.662;8.878;2023-03-20T16:22:42;14.65;48.78
69208;SHT31;56321;47.662;8.878;2023-03-20T16:25:12;14.60;48.54
69208;SHT31;56321;47.662;8.878;2023-03-20T16:27:39;14.57;49.33
69208;SHT31;56321;47.662;8.878;2023-03-20T16:30:18;14.55;48.93
69208;SHT31;56321;47.662;8.878;2023-03-20T16:32:46;14.57;48.58
69208;SHT31;56321;47.662;8.878;2023-03-20T16:35:21;14.54;49.43
69208;SHT31;56321;47.662;8.878;2023-03-20T16:38:00;14.52;49.28
69208;SHT31;56321;47.662;8.878;2023-03-20T16:42:52;14.52;49.02
69208;SHT31;56321;47.662;8.878;2023-03-20T16:45:40;14.45;48.83
69208;SHT31;56321;47.662;8.878;2023-03-20T16:50:36;14.42;49.61
69208;SHT31;56321;47.662;8.878;2023-03-20T16:53:02;14.41;49.47
69208;SHT31;56321;47.662;8.878;2023-03-20T16:55:33;14.36;48.98
69208;SHT31;56321;47.662;8.878;2023-03-20T16:58:03;14.31;50.08
69208;SHT31;56321;47.662;8.878;2023-03-20T17:00:55;14.28;50.85
69208;SHT31;56321;47.662;8.878;2023-03-20T17:03:19;14.24;50.28
69208;SHT31;56321;47.662;8.878;2023-03-20T17:05:57;14.17;51.08
69208;SHT31;56321;47.662;8.878;2023-03-20T17:08:39;14.07;51.79
69208;SHT31;56321;47.662;8.878;2023-03-20T17:11:12;14.00;51.80
69208;SHT31;56321;47.662;8.878;2023-03-20T17:13:38;13.93;52.03
69208;SHT31;56321;47.662;8.878;2023-03-20T17:16:06;13.86;51.80
69208;SHT31;56321;47.662;8.878;2023-03-20T17:18:32;13.80;52.10
69208;SHT31;56321;47.662;8.878;2023-03-20T17:20:58;13.72;52.65
69208;SHT31;56321;47.662;8.878;2023-03-20T17:23:23;13.63;52.70
69208;SHT31;56321;47.662;8.878;2023-03-20T17:25:49;13.54;53.16
69208;SHT31;56321;47.662;8.878;2023-03-20T17:28:17;13.45;53.41
69208;SHT31;56321;47.662;8.878;2023-03-20T17:30:44;13.34;53.68
69208;SHT31;56321;47.662;8.878;2023-03-20T17:33:12;13.24;53.82
69208;SHT31;56321;47.662;8.878;2023-03-20T17:35:38;13.17;53.94
69208;SHT31;56321;47.662;8.878;2023-03-20T17:38:03;13.10;54.47
69208;SHT31;56321;47.662;8.878;2023-03-20T17:40:29;13.04;54.52
69208;SHT31;56321;47.662;8.878;2023-03-20T17:42:54;12.93;54.45
69208;SHT31;56321;47.662;8.878;2023-03-20T17:45:20;12.86;54.87
69208;SHT31;56321;47.662;8.878;2023-03-20T17:47:46;12.75;54.94
69208;SHT31;56321;47.662;8.878;2023-03-20T17:50:20;12.63;55.18
69208;SHT31;56321;47.662;8.878;2023-03-20T17:52:48;12.52;55.12
69208;SHT31;56321;47.662;8.878;2023-03-20T17:55:13;12.46;55.31
69208;SHT31;56321;47.662;8.878;2023-03-20T17:57:40;12.36;55.45
69208;SHT31;56321;47.662;8.878;2023-03-20T18:00:11;12.27;55.68
69208;SHT31;56321;47.662;8.878;2023-03-20T18:02:37;12.17;55.85
69208;SHT31;56321;47.662;8.878;2023-03-20T18:05:02;12.08;56.00
69208;SHT31;56321;47.662;8.878;2023-03-20T18:07:28;11.98;55.98
69208;SHT31;56321;47.662;8.878;2023-03-20T18:09:53;11.93;56.00
69208;SHT31;56321;47.662;8.878;2023-03-20T18:12:19;11.83;56.08
69208;SHT31;56321;47.662;8.878;2023-03-20T18:14:45;11.79;56.12
69208;SHT31;56321;47.662;8.878;2023-03-20T18:17:12;11.71;56.23
69208;SHT31;56321;47.662;8.878;2023-03-20T18:19:39;11.65;56.43
69208;SHT31;56321;47.662;8.878;2023-03-20T18:22:04;11.62;56.83
69208;SHT31;56321;47.662;8.878;2023-03-20T18:24:29;11.52;56.84
69208;SHT31;56321;47.662;8.878;2023-03-20T18:26:55;11.47;57.20
69208;SHT31;56321;47.662;8.878;2023-03-20T18:29:20;11.43;57.19
69208;SHT31;56321;47.662;8.878;2023-03-20T18:31:47;11.38;57.34
69208;SHT31;56321;47.662;8.878;2023-03-20T18:34:12;11.35;57.55
69208;SHT31;56321;47.662;8.878;2023-03-20T18:36:38;11.31;57.68